Time;durP1;ratioP1;P1;durP2;ratioP2;P2;SDS_P1;SDS_P2;PMS_P1;PMS_P2;Temp;Humidity;BMP_temperature;BMP_pressure;BME280_temperature;BME280_humidity;BME280_pressure;Samples;Min_cycle;Max_cycle;Signal;HPM_P1;HPM_P2
2023/08/07 00:00:23;;;;;;;;;;;;;;;12.60;100.00;101376.72;5061087;28;20390;-45
2023/08/07 00:02:48;;;;;;;;;;;;;;;12.60;100.00;101383.56;5047329;28;19928;-45
2023/08/07 00:05:13;;;;;;;;;;;;;;;12.55;100.00;101385.16;5059735;28;19960;-46
2023/08/07 00:07:39;;;;;;;;;;;;;;;12.51;100.00;101378.19;5062123;27;19977;-48
2023/08/07 00:10:04;;;;;;;;;;;;;;;12.52;100.00;101372.19;5052970;27;20302;-47
2023/08/07 00:12:30;;;;;;;;;;;;;;;12.48;100.00;101371.19;5041405;27;19969;-49
2023/08/07 00:14:55;;;;;;;;;;;;;;;12.49;100.00;101370.38;5050806;28;19964;-48
2023/08/07 00:17:20;;;;;;;;;;;;;;;12.50;100.00;101379.00;5051275;28;19980;-41
2023/08/07 00:19:45;;;;;;;;;;;;;;;12.51;100.00;101375.59;5058509;28;19936;-42
2023/08/07 00:22:10;;;;;;;;;;;;;;;12.49;100.00;101367.78;5056038;28;20690;-42
2023/08/07 00:24:36;;;;;;;;;;;;;;;12.55;100.00;101374.81;5056519;27;19960;-42
2023/08/07 00:27:01;;;;;;;;;;;;;;;12.52;100.00;101378.22;5056155;28;19965;-43
2023/08/07 00:29:26;;;;;;;;;;;;;;;12.53;100.00;101377.38;5059494;28;19928;-42
2023/08/07 00:31:52;;;;;;;;;;;;;;;12.56;100.00;101381.75;5057692;28;19925;-42
2023/08/07 00:34:17;;;;;;;;;;;;;;;12.55;100.00;101385.16;5056218;28;19929;-42
2023/08/07 00:36:42;;;;;;;;;;;;;;;12.56;100.00;101381.75;5053627;28;19931;-42
2023/08/07 00:39:08;;;;;;;;;;;;;;;12.60;100.00;101384.44;5058737;28;19928;-42
2023/08/07 00:41:33;;;;;;;;;;;;;;;12.63;100.00;101387.97;5059647;28;20012;-42
2023/08/07 00:43:59;;;;;;;;;;;;;;;12.67;100.00;101382.91;5052450;27;19928;-42
2023/08/07 00:46:24;;;;;;;;;;;;;;;12.62;100.00;101381.94;5060161;28;19921;-42
2023/08/07 00:48:51;;;;;;;;;;;;;;;12.60;100.00;101383.56;5059074;28;20007;-41
2023/08/07 00:51:17;;;;;;;;;;;;;;;12.63;100.00;101396.56;5058726;28;19921;-43
2023/08/07 00:53:42;;;;;;;;;;;;;;;12.59;100.00;101387.88;5059499;28;20019;-43
2023/08/07 00:56:08;;;;;;;;;;;;;;;12.61;100.00;101390.47;5057519;28;21788;-43
2023/08/07 00:58:33;;;;;;;;;;;;;;;12.60;100.00;101383.56;5058430;28;20294;-43
2023/08/07 01:00:59;;;;;;;;;;;;;;;12.55;100.00;101385.16;5056610;28;19925;-42
2023/08/07 01:03:24;;;;;;;;;;;;;;;12.53;100.00;101385.13;5061645;28;19927;-42
2023/08/07 01:05:49;;;;;;;;;;;;;;;12.54;100.00;101373.97;5065883;28;19917;-43
2023/08/07 01:08:15;;;;;;;;;;;;;;;12.53;100.00;101382.53;5061318;28;19920;-42
2023/08/07 01:10:43;;;;;;;;;;;;;;;12.52;100.00;101390.22;5059947;28;20323;-42
2023/08/07 01:13:14;;;;;;;;;;;;;;;12.54;100.00;101383.41;5059508;28;20138;-42
2023/08/07 01:15:39;;;;;;;;;;;;;;;12.55;100.00;101380.84;5066429;28;19920;-40
2023/08/07 01:18:07;;;;;;;;;;;;;;;12.60;100.00;101387.03;5053405;27;19929;-43
2023/08/07 01:20:32;;;;;;;;;;;;;;;12.64;100.00;101392.28;5057375;27;19920;-44
2023/08/07 01:22:58;;;;;;;;;;;;;;;12.65;100.00;101392.31;5056726;28;19923;-42
2023/08/07 01:25:23;;;;;;;;;;;;;;;12.70;100.00;101393.34;5060253;27;20020;-43
2023/08/07 01:28:05;;;;;;;;;;;;;;;12.72;100.00;101393.38;5061591;28;19970;-42
2023/08/07 01:30:33;;;;;;;;;;;;;;;12.75;100.00;101401.22;5060202;28;20297;-42
2023/08/07 01:33:04;;;;;;;;;;;;;;;12.78;100.00;101404.72;5064857;28;19947;-43
2023/08/07 01:35:32;;;;;;;;;;;;;;;12.77;100.00;101396.94;5060516;28;19924;-41
2023/08/07 01:37:58;;;;;;;;;;;;;;;12.77;100.00;101400.41;5061429;28;19924;-42
2023/08/07 01:40:24;;;;;;;;;;;;;;;12.77;100.00;101402.13;5060797;28;19928;-42
2023/08/07 01:42:49;;;;;;;;;;;;;;;12.76;100.00;101393.50;5058458;28;19947;-46
2023/08/07 01:45:21;;;;;;;;;;;;;;;12.75;100.00;101403.78;5061009;28;19917;-46
2023/08/07 01:47:46;;;;;;;;;;;;;;;12.77;100.00;101396.94;5063659;28;19921;-47
2023/08/07 01:50:12;;;;;;;;;;;;;;;12.74;100.00;101396.84;5057089;28;19941;-46
2023/08/07 01:52:37;;;;;;;;;;;;;;;12.74;100.00;101402.00;5057736;27;19924;-48
2023/08/07 01:55:02;;;;;;;;;;;;;;;12.77;100.00;101405.56;5058011;28;19963;-48
2023/08/07 01:57:27;;;;;;;;;;;;;;;12.73;100.00;101402.84;5058662;28;19928;-46
2023/08/07 01:59:53;;;;;;;;;;;;;;;12.75;100.00;101420.13;5061318;28;19940;-46
2023/08/07 02:02:18;;;;;;;;;;;;;;;12.68;100.00;101417.31;5059258;28;19930;-46
2023/08/07 02:04:43;;;;;;;;;;;;;;;12.59;100.00;101423.09;5056847;27;19935;-48
2023/08/07 02:07:08;;;;;;;;;;;;;;;12.63;100.00;101422.38;5064001;28;20024;-46
2023/08/07 02:09:34;;;;;;;;;;;;;;;12.52;100.00;101422.06;5061499;28;19928;-46
2023/08/07 02:11:59;;;;;;;;;;;;;;;12.54;100.00;101422.09;5060014;28;19928;-46
2023/08/07 02:14:24;;;;;;;;;;;;;;;12.51;100.00;101424.59;5058547;28;19924;-45
2023/08/07 02:16:50;;;;;;;;;;;;;;;12.52;100.00;101426.34;5060225;28;19920;-47
2023/08/07 02:19:15;;;;;;;;;;;;;;;12.51;100.00;101429.75;5061495;28;19974;-47
2023/08/07 02:21:40;;;;;;;;;;;;;;;12.49;100.00;101436.56;5040251;28;19929;-46
2023/08/07 02:24:05;;;;;;;;;;;;;;;12.48;100.00;101420.22;5055279;27;20062;-46
2023/08/07 02:26:31;;;;;;;;;;;;;;;12.46;100.00;101418.44;5063426;27;20482;-47
2023/08/07 02:28:56;;;;;;;;;;;;;;;12.46;100.00;101424.47;5056295;28;19920;-47
2023/08/07 02:31:21;;;;;;;;;;;;;;;12.45;100.00;101420.13;5060753;27;20286;-47
2023/08/07 02:33:46;;;;;;;;;;;;;;;12.49;100.00;101427.13;5060960;28;19952;-48
2023/08/07 02:36:12;;;;;;;;;;;;;;;12.48;100.00;101416.75;5061214;27;19972;-48
2023/08/07 02:38:38;;;;;;;;;;;;;;;12.49;100.00;101418.50;5061656;28;19992;-48
2023/08/07 02:41:03;;;;;;;;;;;;;;;12.52;100.00;101431.50;5059331;28;19932;-47
2023/08/07 02:43:28;;;;;;;;;;;;;;;12.53;100.00;101428.97;5061069;28;19929;-48
2023/08/07 02:45:53;;;;;;;;;;;;;;;12.55;100.00;101431.56;5057723;28;19935;-47
2023/08/07 02:48:19;;;;;;;;;;;;;;;12.59;100.00;101449.78;5061061;28;19924;-46
2023/08/07 02:50:44;;;;;;;;;;;;;;;12.65;100.00;101438.75;5061189;28;19920;-47
2023/08/07 02:53:09;;;;;;;;;;;;;;;12.60;100.00;101424.84;5062066;28;20003;-46
2023/08/07 02:55:34;;;;;;;;;;;;;;;12.66;100.00;101431.91;5062668;28;19927;-42
2023/08/07 02:58:00;;;;;;;;;;;;;;;12.60;100.00;101424.84;5060607;28;20302;-42
2023/08/07 03:00:25;;;;;;;;;;;;;;;12.62;100.00;101428.38;5036369;27;19928;-42
2023/08/07 03:02:50;;;;;;;;;;;;;;;12.63;100.00;101429.25;5059974;28;19972;-42
2023/08/07 03:05:15;;;;;;;;;;;;;;;12.61;100.00;101421.44;5061641;28;19924;-41
2023/08/07 03:07:41;;;;;;;;;;;;;;;12.67;100.00;101425.91;5064492;28;20065;-42
2023/08/07 03:10:07;;;;;;;;;;;;;;;12.65;100.00;101423.28;5060364;28;19924;-43
2023/08/07 03:12:32;;;;;;;;;;;;;;;12.66;100.00;101430.19;5060184;28;19917;-43
2023/08/07 03:14:57;;;;;;;;;;;;;;;12.69;100.00;101424.25;5062628;28;19921;-43
2023/08/07 03:17:23;;;;;;;;;;;;;;;12.67;100.00;101426.78;5058355;28;20293;-42
2023/08/07 03:19:49;;;;;;;;;;;;;;;12.65;100.00;101423.28;5059258;28;19925;-43
2023/08/07 03:22:14;;;;;;;;;;;;;;;12.67;100.00;101421.59;5063426;28;20390;-42
2023/08/07 03:24:39;;;;;;;;;;;;;;;12.66;100.00;101419.00;5063983;27;19924;-42
2023/08/07 03:27:04;;;;;;;;;;;;;;;12.66;100.00;101422.44;5057072;27;19996;-43
2023/08/07 03:29:30;;;;;;;;;;;;;;;12.65;100.00;101412.97;5058598;28;19928;-44
2023/08/07 03:31:55;;;;;;;;;;;;;;;12.66;100.00;101412.13;5063528;28;20286;-44
2023/08/07 03:34:21;;;;;;;;;;;;;;;12.66;100.00;101409.53;5036532;27;19930;-43
2023/08/07 03:36:46;;;;;;;;;;;;;;;12.66;100.00;101408.69;5058882;28;20405;-43
2023/08/07 03:39:12;;;;;;;;;;;;;;;12.68;100.00;101417.31;5056664;28;19920;-43
2023/08/07 03:41:37;;;;;;;;;;;;;;;12.69;100.00;101413.94;5057933;28;19931;-42
2023/08/07 03:44:03;;;;;;;;;;;;;;;12.70;100.00;101413.97;5055213;28;19924;-42
2023/08/07 03:46:28;;;;;;;;;;;;;;;12.72;100.00;101417.47;5057007;28;19963;-43
2023/08/07 03:48:53;;;;;;;;;;;;;;;12.77;100.00;101415.00;5055809;28;20714;-43
2023/08/07 03:51:19;;;;;;;;;;;;;;;12.78;100.00;101419.34;5056970;28;19920;-43
2023/08/07 03:53:44;;;;;;;;;;;;;;;12.78;100.00;101419.34;5060562;28;19920;-42
2023/08/07 03:56:09;;;;;;;;;;;;;;;12.81;100.00;101425.47;5058950;28;19916;-41
2023/08/07 03:58:35;;;;;;;;;;;;;;;12.81;100.00;101430.63;5057187;28;20724;-42
2023/08/07 04:01:00;;;;;;;;;;;;;;;12.88;100.00;101427.38;5058291;28;19929;-42
2023/08/07 04:03:25;;;;;;;;;;;;;;;12.85;100.00;101424.72;5053545;27;20386;-42
2023/08/07 04:05:54;;;;;;;;;;;;;;;12.94;100.00;101416.34;5034544;28;19936;-43
2023/08/07 04:08:20;;;;;;;;;;;;;;;12.89;100.00;101418.81;5045588;27;19921;-43
2023/08/07 04:10:45;;;;;;;;;;;;;;;12.89;100.00;101413.66;5037304;27;19929;-42
2023/08/07 04:13:10;;;;;;;;;;;;;;;12.90;100.00;101411.94;5034004;28;19925;-42
2023/08/07 04:15:36;;;;;;;;;;;;;;;12.91;100.00;101417.97;5032942;28;19939;-42
2023/08/07 04:18:01;;;;;;;;;;;;;;;12.89;100.00;101417.94;5050666;28;19927;-45
2023/08/07 04:20:26;;;;;;;;;;;;;;;12.88;100.00;101429.09;5052030;28;19925;-44
2023/08/07 04:22:51;;;;;;;;;;;;;;;12.93;100.00;101424.06;5048046;28;20028;-45
2023/08/07 04:25:17;;;;;;;;;;;;;;;12.89;100.00;101417.94;5050202;28;20312;-42
2023/08/07 04:27:42;;;;;;;;;;;;;;;12.88;100.00;101427.38;5049621;28;19921;-42
2023/08/07 04:30:07;;;;;;;;;;;;;;;12.88;100.00;101416.19;5053053;28;20294;-42
2023/08/07 04:32:33;;;;;;;;;;;;;;;12.92;100.00;101435.19;5050258;28;19971;-45
2023/08/07 04:34:58;;;;;;;;;;;;;;;12.89;100.00;101429.13;5050128;28;19940;-41
2023/08/07 04:37:23;;;;;;;;;;;;;;;12.95;100.00;101433.59;5048829;28;19952;-42
2023/08/07 04:39:49;;;;;;;;;;;;;;;12.87;100.00;101435.97;5050157;28;19928;-43
2023/08/07 04:42:14;;;;;;;;;;;;;;;12.87;100.00;101425.66;5047359;27;19928;-44
2023/08/07 04:44:39;;;;;;;;;;;;;;;12.83;100.00;101444.44;5052471;28;20015;-43
2023/08/07 04:47:05;;;;;;;;;;;;;;;12.82;100.00;101442.69;5050968;27;19925;-42
2023/08/07 04:49:30;;;;;;;;;;;;;;;12.83;100.00;101436.69;5049593;28;21766;-43
2023/08/07 04:51:55;;;;;;;;;;;;;;;12.84;100.00;101440.16;5056093;28;19917;-43
2023/08/07 04:54:21;;;;;;;;;;;;;;;12.86;100.00;101438.47;5041226;28;19928;-43
2023/08/07 04:56:46;;;;;;;;;;;;;;;12.83;100.00;101443.56;5055714;28;19928;-43
2023/08/07 04:59:11;;;;;;;;;;;;;;;12.85;100.00;101440.19;5056109;28;20513;-43
2023/08/07 05:01:36;;;;;;;;;;;;;;;12.85;100.00;101442.78;5056134;28;19927;-46
2023/08/07 05:04:02;;;;;;;;;;;;;;;12.86;100.00;101444.56;5058323;28;20601;-43
2023/08/07 05:06:27;;;;;;;;;;;;;;;12.92;100.00;101442.94;5059984;28;20382;-44
2023/08/07 05:08:52;;;;;;;;;;;;;;;12.92;100.00;101448.09;5061045;28;19969;-43
2023/08/07 05:11:19;;;;;;;;;;;;;;;12.92;100.00;101455.84;5059072;27;19928;-42
2023/08/07 05:13:44;;;;;;;;;;;;;;;12.94;100.00;101447.34;5058588;28;20320;-41
2023/08/07 05:16:10;;;;;;;;;;;;;;;12.94;100.00;101451.63;5052082;27;20394;-46
2023/08/07 05:18:35;;;;;;;;;;;;;;;12.98;100.00;101456.03;5056888;27;19928;-45
2023/08/07 05:21:00;;;;;;;;;;;;;;;12.98;100.00;101456.88;5060026;28;19924;-43
2023/08/07 05:23:25;;;;;;;;;;;;;;;12.98;100.00;101456.03;5058140;28;20360;-42
2023/08/07 05:25:51;;;;;;;;;;;;;;;13.00;100.00;101463.00;5056088;28;19964;-43
2023/08/07 05:28:16;;;;;;;;;;;;;;;12.99;100.00;101465.53;5054314;28;19921;-43
2023/08/07 05:30:42;;;;;;;;;;;;;;;12.98;100.00;101479.25;5056156;28;19973;-51
2023/08/07 05:33:07;;;;;;;;;;;;;;;13.00;100.00;101475.03;5056560;28;20016;-48
2023/08/07 05:35:32;;;;;;;;;;;;;;;12.96;100.00;101479.22;5056732;28;19924;-47
2023/08/07 05:37:57;;;;;;;;;;;;;;;12.91;100.00;101485.06;5056937;28;20387;-49
2023/08/07 05:40:23;;;;;;;;;;;;;;;12.85;100.00;101485.78;5054890;28;19933;-49
2023/08/07 05:42:48;;;;;;;;;;;;;;;12.79;100.00;101485.59;5054680;28;19936;-50
2023/08/07 05:45:13;;;;;;;;;;;;;;;12.76;100.00;101490.69;5058797;28;20393;-49
2023/08/07 05:47:38;;;;;;;;;;;;;;;12.76;100.00;101496.72;5062703;28;20015;-50
2023/08/07 05:50:04;;;;;;;;;;;;;;;12.72;100.00;101494.00;5060556;27;19920;-52
2023/08/07 05:52:29;;;;;;;;;;;;;;;12.72;100.00;101506.91;5057554;27;19972;-52
2023/08/07 05:54:54;;;;;;;;;;;;;;;12.71;100.00;101494.84;5055866;28;19974;-50
2023/08/07 05:57:20;;;;;;;;;;;;;;;12.71;100.00;101502.56;5059911;28;19985;-51
2023/08/07 05:59:45;;;;;;;;;;;;;;;12.72;100.00;101502.63;5058709;28;19929;-51
2023/08/07 06:02:13;;;;;;;;;;;;;;;12.71;100.00;101502.56;5060878;28;20011;-51
2023/08/07 06:04:38;;;;;;;;;;;;;;;12.76;100.00;101503.59;5061048;28;21898;-51
2023/08/07 06:07:04;;;;;;;;;;;;;;;12.76;100.00;101507.03;5063078;28;19960;-51
2023/08/07 06:09:29;;;;;;;;;;;;;;;12.78;100.00;101513.13;5061205;28;19931;-52
2023/08/07 06:11:54;;;;;;;;;;;;;;;12.82;100.00;101511.50;5040460;28;19925;-51
2023/08/07 06:14:20;;;;;;;;;;;;;;;12.85;100.00;101514.16;5059783;28;19921;-50
2023/08/07 06:16:45;;;;;;;;;;;;;;;12.81;100.00;101512.34;5057920;28;19977;-49
2023/08/07 06:19:10;;;;;;;;;;;;;;;12.82;100.00;101525.28;5058912;28;19928;-48
2023/08/07 06:21:36;;;;;;;;;;;;;;;12.82;100.00;101520.13;5062114;28;20268;-50
2023/08/07 06:24:01;;;;;;;;;;;;;;;12.86;100.00;101527.13;5055271;27;19924;-51
2023/08/07 06:26:26;;;;;;;;;;;;;;;12.98;100.00;101523.13;5055202;28;19921;-51
2023/08/07 06:28:51;;;;;;;;;;;;;;;12.95;100.00;101525.66;5059897;28;20367;-48
2023/08/07 06:31:17;;;;;;;;;;;;;;;12.98;100.00;101526.59;5059110;28;19987;-50
2023/08/07 06:33:42;;;;;;;;;;;;;;;13.07;100.00;101528.56;5058224;28;20270;-51
2023/08/07 06:36:08;;;;;;;;;;;;;;;13.16;100.00;101536.56;5057294;28;19976;-51
2023/08/07 06:38:34;;;;;;;;;;;;;;;13.24;100.00;101536.84;5059787;28;19917;-50
2023/08/07 06:40:59;;;;;;;;;;;;;;;13.39;100.00;101540.69;5059002;28;19925;-50
2023/08/07 06:43:24;;;;;;;;;;;;;;;13.61;100.00;101541.28;5068024;28;19943;-50
2023/08/07 06:45:50;;;;;;;;;;;;;;;13.69;100.00;101540.66;5054042;28;19939;-50
2023/08/07 06:48:15;;;;;;;;;;;;;;;13.82;100.00;101536.66;5057217;28;20370;-50
2023/08/07 06:50:41;;;;;;;;;;;;;;;13.88;100.00;101551.47;5063853;28;19920;-50
2023/08/07 06:53:06;;;;;;;;;;;;;;;14.01;100.00;101552.63;5059255;27;19935;-51
2023/08/07 06:55:32;;;;;;;;;;;;;;;13.95;100.00;101549.09;5064561;27;19971;-48
2023/08/07 06:57:58;;;;;;;;;;;;;;;13.99;100.00;101544.84;5050737;27;19925;-51
2023/08/07 07:00:23;;;;;;;;;;;;;;;13.99;100.00;101537.09;5063106;27;19927;-49
2023/08/07 07:02:48;;;;;;;;;;;;;;;14.04;100.00;101551.00;5053439;28;19984;-51
2023/08/07 07:05:13;;;;;;;;;;;;;;;14.12;100.00;101556.38;5051756;28;20400;-51
2023/08/07 07:07:39;;;;;;;;;;;;;;;14.08;100.00;101570.09;5053950;28;20019;-53
2023/08/07 07:10:04;;;;;;;;;;;;;;;14.04;100.00;101574.28;5038365;28;19932;-50
2023/08/07 07:12:30;;;;;;;;;;;;;;;13.90;100.00;101586.88;5054556;28;20379;-49
2023/08/07 07:14:55;;;;;;;;;;;;;;;13.84;100.00;101591.88;5037251;27;19929;-50
2023/08/07 07:17:20;;;;;;;;;;;;;;;13.79;100.00;101601.22;5057697;28;19920;-48
2023/08/07 07:19:45;;;;;;;;;;;;;;;13.66;100.00;101601.72;5039504;28;19962;-50
2023/08/07 07:22:11;;;;;;;;;;;;;;;13.51;100.00;101601.28;5052160;28;20455;-48
2023/08/07 07:24:36;;;;;;;;;;;;;;;13.30;100.00;101607.63;5057550;28;19920;-50
2023/08/07 07:27:01;;;;;;;;;;;;;;;13.29;100.00;101598.13;5062917;27;19925;-50
2023/08/07 07:29:26;;;;;;;;;;;;;;;13.28;100.00;101598.06;5057639;28;20407;-49
2023/08/07 07:31:53;;;;;;;;;;;;;;;13.17;100.00;101613.22;5055602;27;20029;-50
2023/08/07 07:34:19;;;;;;;;;;;;;;;13.22;100.00;101603.91;5052587;27;19921;-48
2023/08/07 07:36:45;;;;;;;;;;;;;;;13.22;100.00;101614.25;5050018;28;19931;-49
2023/08/07 07:39:10;;;;;;;;;;;;;;;13.23;100.00;101618.63;5050989;28;19957;-50
2023/08/07 07:41:35;;;;;;;;;;;;;;;13.17;100.00;101620.97;5055630;28;19963;-48
2023/08/07 07:44:02;;;;;;;;;;;;;;;13.20;100.00;101630.50;5052852;28;21176;-50
2023/08/07 07:46:27;;;;;;;;;;;;;;;12.99;100.00;101628.19;5055985;28;19929;-47
2023/08/07 07:48:52;;;;;;;;;;;;;;;12.88;100.00;101620.97;5053431;28;19920;-48
2023/08/07 07:51:17;;;;;;;;;;;;;;;12.86;100.00;101622.63;5054291;28;20385;-48
2023/08/07 07:53:43;;;;;;;;;;;;;;;12.83;100.00;101619.94;5055176;28;19920;-51
2023/08/07 07:56:08;;;;;;;;;;;;;;;12.91;100.00;101616.72;5051890;27;19977;-50
2023/08/07 07:58:33;;;;;;;;;;;;;;;13.05;100.00;101626.66;5052287;28;20020;-49
2023/08/07 08:00:59;;;;;;;;;;;;;;;13.01;100.00;101622.22;5054730;28;19932;-49
2023/08/07 08:03:24;;;;;;;;;;;;;;;13.12;100.00;101632.88;5054418;28;20011;-50
2023/08/07 08:05:50;;;;;;;;;;;;;;;13.23;100.00;101626.34;5048168;27;20584;-50
2023/08/07 08:08:15;;;;;;;;;;;;;;;13.35;100.00;101624.13;5050685;28;19928;-51
2023/08/07 08:10:41;;;;;;;;;;;;;;;13.48;100.00;101624.47;5050720;28;19929;-50
2023/08/07 08:13:08;;;;;;;;;;;;;;;13.61;100.00;101629.16;5052594;28;19964;-50
2023/08/07 08:15:33;;;;;;;;;;;;;;;13.82;100.00;101624.56;5051803;28;19969;-49
2023/08/07 08:17:59;;;;;;;;;;;;;;;14.16;100.00;101626.31;5052669;28;19928;-51
2023/08/07 08:20:24;;;;;;;;;;;;;;;14.45;100.00;101623.59;5058079;28;19977;-48
2023/08/07 08:22:49;;;;;;;;;;;;;;;14.75;100.00;101629.53;5062816;28;20282;-47
2023/08/07 08:25:14;;;;;;;;;;;;;;;14.97;100.00;101632.59;5059448;27;19928;-50
2023/08/07 08:27:40;;;;;;;;;;;;;;;15.22;100.00;101627.09;5053078;28;19973;-49
2023/08/07 08:30:06;;;;;;;;;;;;;;;15.49;100.00;101625.94;5053681;28;19925;-51
2023/08/07 08:32:31;;;;;;;;;;;;;;;15.74;100.00;101632.50;5058712;27;19920;-50
2023/08/07 08:34:56;;;;;;;;;;;;;;;16.00;100.00;101635.56;5062366;27;20033;-50
2023/08/07 08:37:22;;;;;;;;;;;;;;;16.08;100.00;101634.88;5061674;28;19928;-50
2023/08/07 08:39:47;;;;;;;;;;;;;;;16.01;100.00;101638.19;5059151;27;20054;-49
2023/08/07 08:42:13;;;;;;;;;;;;;;;15.84;100.00;101644.81;5056659;28;19971;-50
2023/08/07 08:44:39;;;;;;;;;;;;;;;15.75;100.00;101648.06;5058432;28;19927;-50
2023/08/07 08:47:04;;;;;;;;;;;;;;;15.67;100.00;101660.03;5059897;28;19928;-51
2023/08/07 08:49:35;;;;;;;;;;;;;;;15.68;100.00;101656.59;5060056;28;19932;-52
2023/08/07 08:52:01;;;;;;;;;;;;;;;15.47;100.00;101654.41;5059520;28;19943;-47
2023/08/07 08:54:26;;;;;;;;;;;;;;;15.55;100.00;101652.84;5061915;28;19927;-50
2023/08/07 08:56:52;;;;;;;;;;;;;;;15.70;100.00;101656.59;5071601;28;19928;-46
2023/08/07 08:59:18;;;;;;;;;;;;;;;15.85;100.00;101656.06;5059029;28;19920;-48
2023/08/07 09:01:45;;;;;;;;;;;;;;;15.99;100.00;101657.16;5056824;28;19986;-49
2023/08/07 09:04:10;;;;;;;;;;;;;;;16.13;100.00;101662.59;5053518;28;20316;-49
2023/08/07 09:06:35;;;;;;;;;;;;;;;16.29;100.00;101657.72;5059272;28;20412;-47
2023/08/07 09:09:01;;;;;;;;;;;;;;;16.50;98.31;101661.50;5057007;28;20509;-48
2023/08/07 09:11:27;;;;;;;;;;;;;;;16.60;90.29;101656.50;5050924;28;20401;-48
2023/08/07 09:13:54;;;;;;;;;;;;;;;16.71;95.44;101655.84;5053589;27;19929;-50
2023/08/07 09:16:19;;;;;;;;;;;;;;;16.95;100.00;101664.00;5052480;28;19932;-52
2023/08/07 09:18:45;;;;;;;;;;;;;;;17.18;95.00;101672.13;5059928;28;19921;-49
2023/08/07 09:21:11;;;;;;;;;;;;;;;17.28;88.80;101665.31;5061498;28;19928;-51
2023/08/07 09:23:36;;;;;;;;;;;;;;;17.38;89.09;101664.59;5064289;28;20468;-50
2023/08/07 09:26:02;;;;;;;;;;;;;;;17.47;86.78;101674.22;5059081;28;20467;-50
2023/08/07 09:28:29;;;;;;;;;;;;;;;17.40;84.60;101673.28;5066222;28;19969;-49
2023/08/07 09:30:54;;;;;;;;;;;;;;;17.38;77.21;101674.97;5045834;28;19921;-47
2023/08/07 09:33:24;;;;;;;;;;;;;;;17.14;77.67;101681.59;5065073;28;19928;-51
2023/08/07 09:35:49;;;;;;;;;;;;;;;17.04;76.95;101679.69;5062667;28;19926;-51
2023/08/07 09:38:14;;;;;;;;;;;;;;;17.02;73.95;101686.63;5045651;28;19925;-50
2023/08/07 09:40:42;;;;;;;;;;;;;;;17.13;84.11;101673.78;5059080;28;20009;-48
2023/08/07 09:43:07;;;;;;;;;;;;;;;17.24;85.36;101680.00;5058155;28;20374;-48
2023/08/07 09:45:34;;;;;;;;;;;;;;;17.43;79.03;101682.00;5066811;28;19928;-47
2023/08/07 09:48:00;;;;;;;;;;;;;;;17.40;74.37;101684.53;5057149;27;20645;-48
2023/08/07 09:50:26;;;;;;;;;;;;;;;17.29;75.10;101680.94;5066093;28;20375;-50
2023/08/07 09:52:51;;;;;;;;;;;;;;;17.33;79.21;101687.03;5047582;28;20378;-49
2023/08/07 09:55:17;;;;;;;;;;;;;;;17.32;74.51;101685.31;5044135;28;19939;-50
2023/08/07 09:57:45;;;;;;;;;;;;;;;17.31;77.19;101693.97;5058340;28;20374;-47
2023/08/07 10:00:15;;;;;;;;;;;;;;;17.37;76.43;101694.03;5065437;28;19924;-50
2023/08/07 10:02:40;;;;;;;;;;;;;;;17.56;72.34;101697.75;5058690;28;19925;-50
2023/08/07 10:05:06;;;;;;;;;;;;;;;17.62;73.74;101690.91;5062525;28;20345;-47
2023/08/07 10:07:32;;;;;;;;;;;;;;;17.78;75.88;101681.59;5063815;28;20011;-51
2023/08/07 10:09:58;;;;;;;;;;;;;;;17.93;75.15;101686.09;5064881;28;19967;-47
2023/08/07 10:12:24;;;;;;;;;;;;;;;18.01;71.40;101697.44;5062343;28;19939;-51
2023/08/07 10:14:50;;;;;;;;;;;;;;;17.95;68.10;101694.75;5064750;28;20305;-45
2023/08/07 10:17:16;;;;;;;;;;;;;;;17.99;69.82;101693.94;5056988;28;19964;-49
2023/08/07 10:19:43;;;;;;;;;;;;;;;18.05;72.50;101695.75;5061515;28;19967;-48
2023/08/07 10:22:08;;;;;;;;;;;;;;;18.16;65.48;101697.59;5050710;27;19963;-50
2023/08/07 10:24:34;;;;;;;;;;;;;;;18.06;70.19;101694.88;5057960;28;20466;-52
2023/08/07 10:27:00;;;;;;;;;;;;;;;18.18;68.77;101701.09;5059136;28;19935;-48
2023/08/07 10:29:26;;;;;;;;;;;;;;;18.21;68.44;101703.75;5057603;28;19925;-49
2023/08/07 10:31:52;;;;;;;;;;;;;;;18.28;68.23;101704.66;5060048;28;20630;-46
2023/08/07 10:34:18;;;;;;;;;;;;;;;18.35;67.53;101695.19;5056633;28;19920;-48
2023/08/07 10:36:44;;;;;;;;;;;;;;;18.37;65.54;101707.34;5058178;28;19935;-51
2023/08/07 10:39:10;;;;;;;;;;;;;;;18.42;61.89;101708.25;5058284;27;19924;-41
2023/08/07 10:41:42;;;;;;;;;;;;;;;18.42;63.41;101707.41;5060299;28;19924;-42
2023/08/07 10:44:18;;;;;;;;;;;;;;;18.37;65.98;101709.06;5055790;28;19929;-43
2023/08/07 10:46:47;;;;;;;;;;;;;;;18.39;64.38;101707.38;5059367;28;19921;-41
2023/08/07 10:49:29;;;;;;;;;;;;;;;18.46;62.05;101703.97;5057181;28;19920;-42
2023/08/07 10:51:55;;;;;;;;;;;;;;;18.61;64.45;101708.44;5059037;28;19917;-42
2023/08/07 10:54:20;;;;;;;;;;;;;;;18.66;63.86;101720.63;5050245;28;19935;-44
2023/08/07 10:56:51;;;;;;;;;;;;;;;18.66;64.43;101722.38;5052370;27;19924;-42
2023/08/07 10:59:17;;;;;;;;;;;;;;;18.69;61.91;101728.53;5057871;28;20050;-42
2023/08/07 11:01:42;;;;;;;;;;;;;;;18.80;63.74;101725.09;5061446;28;20036;-42
2023/08/07 11:04:14;;;;;;;;;;;;;;;18.88;62.69;101718.25;5056204;28;19974;-44
2023/08/07 11:06:40;;;;;;;;;;;;;;;18.98;61.13;101739.16;5059603;28;20398;-45
2023/08/07 11:09:07;;;;;;;;;;;;;;;18.57;60.23;101731.00;5056507;28;19922;-44
2023/08/07 11:11:39;;;;;;;;;;;;;;;18.37;59.57;101729.91;5036490;28;19984;-45
2023/08/07 11:14:05;;;;;;;;;;;;;;;18.29;62.97;101721.16;5060735;28;19920;-43
2023/08/07 11:16:30;;;;;;;;;;;;;;;18.40;63.47;101735.16;5057037;28;19931;-46
2023/08/07 11:18:55;;;;;;;;;;;;;;;18.47;62.69;101726.53;5049129;28;19921;-42
2023/08/07 11:21:21;;;;;;;;;;;;;;;18.60;58.30;101723.19;5059623;28;20289;-46
2023/08/07 11:23:46;;;;;;;;;;;;;;;18.80;58.22;101731.19;5060785;28;19929;-45
2023/08/07 11:26:11;;;;;;;;;;;;;;;18.77;53.82;101728.56;5061094;28;20204;-46
2023/08/07 11:28:37;;;;;;;;;;;;;;;18.77;55.66;101730.31;5057548;28;19921;-44
2023/08/07 11:31:02;;;;;;;;;;;;;;;18.82;54.88;101726.00;5053136;27;20046;-43
2023/08/07 11:33:28;;;;;;;;;;;;;;;18.74;59.06;101725.94;5058183;28;19920;-46
2023/08/07 11:35:54;;;;;;;;;;;;;;;18.73;57.94;101718.97;5056043;28;19917;-42
2023/08/07 11:38:48;;;;;;;;;;;;;;;18.85;58.15;101716.47;5058383;27;19981;-42
2023/08/07 11:41:15;;;;;;;;;;;;;;;19.13;55.67;101735.78;5058513;28;19999;-41
2023/08/07 11:43:40;;;;;;;;;;;;;;;19.08;51.17;101734.88;5059019;28;19924;-43
2023/08/07 11:46:07;;;;;;;;;;;;;;;18.98;53.88;101733.06;5056905;28;19924;-42
2023/08/07 11:48:33;;;;;;;;;;;;;;;18.92;51.62;101730.41;5055683;28;20316;-43
2023/08/07 11:50:59;;;;;;;;;;;;;;;18.94;53.98;101729.59;5057402;28;19923;-42
2023/08/07 11:53:25;;;;;;;;;;;;;;;18.95;51.51;101733.06;5056823;28;19936;-45
2023/08/07 11:55:54;;;;;;;;;;;;;;;18.88;51.17;101724.31;5060551;28;20088;-43
2023/08/07 11:58:19;;;;;;;;;;;;;;;18.78;50.17;101722.50;5059615;28;19920;-40
2023/08/07 12:00:45;;;;;;;;;;;;;;;18.70;50.72;101724.19;5057570;28;19931;-42
2023/08/07 12:03:27;;;;;;;;;;;;;;;18.70;53.63;101721.56;5043311;28;19924;-45
2023/08/07 12:05:53;;;;;;;;;;;;;;;18.92;54.93;101713.03;5053231;27;20011;-43
2023/08/07 12:08:18;;;;;;;;;;;;;;;19.14;51.21;101718.41;5055560;27;20411;-42
2023/08/07 12:10:44;;;;;;;;;;;;;;;19.17;52.67;101719.31;5056408;28;20086;-41
2023/08/07 12:13:11;;;;;;;;;;;;;;;19.18;56.00;101712.38;5058818;28;19935;-43
2023/08/07 12:15:37;;;;;;;;;;;;;;;19.44;55.85;101707.28;5053384;27;20318;-43
2023/08/07 12:18:03;;;;;;;;;;;;;;;19.62;51.60;101715.22;5047702;28;19921;-43
2023/08/07 12:20:28;;;;;;;;;;;;;;;19.50;48.23;101722.97;5047320;28;20299;-44
2023/08/07 12:22:54;;;;;;;;;;;;;;;19.38;48.29;101720.31;5050122;28;19924;-43